createdAt,value
2024-02-29T00:00:09.338Z,7.03
2024-02-29T00:01:11.129Z,7.08
2024-02-29T00:02:13.048Z,7.11
2024-02-29T00:03:14.899Z,7.11
2024-02-29T00:04:16.506Z,7.06
2024-02-29T00:05:18.115Z,7.02
2024-02-29T00:06:19.851Z,6.98
2024-02-29T00:07:21.435Z,7.03
2024-02-29T00:08:23.083Z,7.06
2024-02-29T00:09:25.081Z,7.03
2024-02-29T00:10:26.888Z,7.01
2024-02-29T00:11:28.559Z,6.94
2024-02-29T00:12:30.374Z,6.91
2024-02-29T00:13:32.125Z,6.85
2024-02-29T00:14:33.750Z,6.79
2024-02-29T00:15:35.522Z,6.86
2024-02-29T00:16:37.227Z,6.89
2024-02-29T00:17:39.100Z,6.95
2024-02-29T00:18:40.817Z,6.99
2024-02-29T00:19:42.499Z,7.01
2024-02-29T00:20:44.173Z,7.04
2024-02-29T00:21:46.331Z,7.05
2024-02-29T00:22:48.030Z,7.08
2024-02-29T00:23:49.733Z,7.13
2024-02-29T00:24:51.632Z,7.08
2024-02-29T00:25:53.356Z,7.06
2024-02-29T00:26:55.176Z,7.06
2024-02-29T00:27:57.999Z,7.10
2024-02-29T00:28:59.757Z,7.08
2024-02-29T00:30:01.413Z,7.05
2024-02-29T00:31:04.085Z,7.10
2024-02-29T00:32:06.188Z,7.13
2024-02-29T00:33:07.929Z,7.14
2024-02-29T00:34:09.637Z,7.07
2024-02-29T00:35:11.438Z,7.05
2024-02-29T00:36:13.229Z,7.06
2024-02-29T00:37:14.944Z,7.06
2024-02-29T00:38:17.398Z,7.06
2024-02-29T00:39:19.235Z,6.96
2024-02-29T00:40:21.010Z,6.94
2024-02-29T00:41:22.760Z,6.88
2024-02-29T00:42:24.608Z,6.89
2024-02-29T00:43:27.261Z,6.91
2024-02-29T00:44:29.019Z,6.91
2024-02-29T00:45:30.917Z,6.87
2024-02-29T00:46:32.731Z,6.81
2024-02-29T00:47:34.667Z,6.85
2024-02-29T00:48:39.668Z,6.81
2024-02-29T00:49:41.618Z,6.85
2024-02-29T00:50:43.233Z,6.85
2024-02-29T00:51:44.916Z,6.74
2024-02-29T00:52:46.678Z,6.71
2024-02-29T00:53:48.485Z,6.75
2024-02-29T00:54:50.370Z,6.81
2024-02-29T00:55:52.133Z,6.84
2024-02-29T00:56:53.796Z,6.91
2024-02-29T00:57:55.537Z,6.93
2024-02-29T00:58:57.336Z,6.88
2024-02-29T00:59:59.083Z,6.93
2024-02-29T01:01:00.937Z,6.96
2024-02-29T01:02:02.793Z,6.98
2024-02-29T01:03:04.937Z,6.99
2024-02-29T01:04:06.759Z,7.02
2024-02-29T01:05:08.727Z,7.03
2024-02-29T01:06:10.528Z,7.08
2024-02-29T01:07:12.348Z,7.12
2024-02-29T01:08:14.122Z,7.15
2024-02-29T01:09:15.838Z,7.02
2024-02-29T01:10:17.827Z,6.89
2024-02-29T01:11:19.550Z,6.93
2024-02-29T01:12:21.385Z,6.94
2024-02-29T01:13:23.175Z,6.95
2024-02-29T01:14:24.871Z,6.94
2024-02-29T01:15:26.483Z,6.95
2024-02-29T01:16:28.206Z,6.97
2024-02-29T01:17:29.901Z,6.88
2024-02-29T01:18:31.653Z,6.87
2024-02-29T01:19:33.496Z,6.92
2024-02-29T01:20:35.293Z,6.89
2024-02-29T01:21:37.924Z,6.85
2024-02-29T01:22:39.751Z,6.89
2024-02-29T01:23:41.396Z,6.89
2024-02-29T01:24:43.217Z,6.93
2024-02-29T01:25:44.907Z,6.95
2024-02-29T01:26:46.568Z,6.95
2024-02-29T01:27:48.267Z,6.99
2024-02-29T01:28:49.977Z,7.00
2024-02-29T01:29:51.761Z,7.01
2024-02-29T01:30:53.450Z,7.03
2024-02-29T01:31:55.103Z,7.05
2024-02-29T01:32:56.829Z,7.01
2024-02-29T01:33:58.672Z,7.01
2024-02-29T01:35:00.324Z,7.02
2024-02-29T01:36:02.051Z,7.02
2024-02-29T01:37:04.765Z,7.03
2024-02-29T01:38:06.543Z,7.06
2024-02-29T01:39:08.189Z,7.10
2024-02-29T01:40:10.196Z,7.12
2024-02-29T01:41:12.044Z,7.14
2024-02-29T01:42:13.732Z,7.09
2024-02-29T01:43:15.347Z,7.06
2024-02-29T01:44:17.351Z,6.98
2024-02-29T01:45:19.062Z,6.95
2024-02-29T01:46:21.676Z,6.99
2024-02-29T01:47:24.834Z,7.02
2024-02-29T01:48:26.651Z,7.05
2024-02-29T01:49:28.862Z,7.05
2024-02-29T01:50:31.397Z,7.03
2024-02-29T01:51:33.576Z,7.07
2024-02-29T01:52:39.609Z,7.11
2024-02-29T01:53:41.436Z,7.12
2024-02-29T01:54:43.824Z,7.13
2024-02-29T01:55:45.758Z,7.13
2024-02-29T01:56:47.510Z,7.13
2024-02-29T01:57:49.329Z,7.12
2024-02-29T01:58:51.062Z,7.08
2024-02-29T01:59:53.251Z,7.10
2024-02-29T02:00:55.161Z,7.10
2024-02-29T02:01:57.181Z,7.11
2024-02-29T02:02:58.834Z,7.13
2024-02-29T02:04:00.692Z,7.13
2024-02-29T02:05:02.432Z,7.14
2024-02-29T02:06:04.382Z,7.16
2024-02-29T02:07:06.426Z,7.10
2024-02-29T02:08:08.553Z,7.07
2024-02-29T02:09:10.201Z,7.02
2024-02-29T02:10:12.431Z,6.95
2024-02-29T02:11:14.409Z,6.95
2024-02-29T02:12:16.348Z,6.95
2024-02-29T02:13:18.105Z,6.90
2024-02-29T02:14:19.789Z,6.92
2024-02-29T02:15:21.625Z,6.93
2024-02-29T02:16:23.354Z,6.95
2024-02-29T02:17:25.042Z,7.02
2024-02-29T02:18:27.181Z,6.96
2024-02-29T02:19:28.921Z,6.94
2024-02-29T02:20:30.744Z,6.94
2024-02-29T02:21:32.527Z,6.93
2024-02-29T02:22:34.362Z,6.94
2024-02-29T02:23:36.050Z,6.88
2024-02-29T02:24:37.776Z,6.92
2024-02-29T02:25:39.391Z,6.90
2024-02-29T02:26:41.046Z,6.85
2024-02-29T02:27:42.946Z,6.84
2024-02-29T02:28:44.592Z,6.78
2024-02-29T02:29:46.179Z,6.77
2024-02-29T02:30:48.036Z,6.77
2024-02-29T02:31:49.668Z,6.80
2024-02-29T02:32:51.466Z,6.85
2024-02-29T02:33:53.208Z,6.87
2024-02-29T02:34:54.815Z,6.91
2024-02-29T02:35:56.718Z,6.92
2024-02-29T02:36:58.344Z,6.93
2024-02-29T02:38:01.806Z,6.95
2024-02-29T02:39:03.635Z,6.98
2024-02-29T02:40:06.560Z,6.98
2024-02-29T02:41:08.344Z,6.98
2024-02-29T02:42:10.061Z,7.00
2024-02-29T02:43:11.781Z,7.04
2024-02-29T02:44:13.741Z,7.06
2024-02-29T02:45:15.556Z,7.08
2024-02-29T02:46:18.315Z,7.03
2024-02-29T02:47:19.937Z,7.05
2024-02-29T02:48:21.663Z,7.08
2024-02-29T02:49:23.312Z,7.08
2024-02-29T02:50:25.814Z,7.08
2024-02-29T02:51:27.934Z,7.06
2024-02-29T02:52:29.681Z,7.08
2024-02-29T02:53:31.371Z,7.08
2024-02-29T02:54:33.127Z,7.01
2024-02-29T02:55:34.789Z,7.01
2024-02-29T02:56:36.465Z,7.01
2024-02-29T02:57:38.312Z,6.96
2024-02-29T02:58:40.080Z,6.98
2024-02-29T02:59:41.772Z,6.94
2024-02-29T03:00:43.472Z,6.96
2024-02-29T03:01:45.374Z,7.00
2024-02-29T03:02:47.193Z,7.01
2024-02-29T03:03:48.993Z,7.02
2024-02-29T03:04:50.881Z,7.00
2024-02-29T03:05:52.567Z,7.01
2024-02-29T03:06:54.300Z,7.05
2024-02-29T03:07:56.113Z,7.06
2024-02-29T03:08:57.879Z,7.05
2024-02-29T03:09:59.922Z,7.03
2024-02-29T03:11:01.904Z,7.05
2024-02-29T03:12:03.756Z,7.07
2024-02-29T03:13:05.650Z,7.11
2024-02-29T03:14:07.526Z,7.11
2024-02-29T03:15:09.835Z,7.11
2024-02-29T03:16:11.488Z,7.15
2024-02-29T03:17:13.438Z,7.20
2024-02-29T03:18:15.244Z,7.18
2024-02-29T03:19:17.198Z,7.12
2024-02-29T03:20:18.928Z,7.13
2024-02-29T03:21:20.697Z,7.17
2024-02-29T03:22:22.620Z,7.10
2024-02-29T03:23:24.222Z,7.05
2024-02-29T03:24:25.883Z,7.06
2024-02-29T03:25:27.513Z,7.06
2024-02-29T03:26:29.257Z,7.08
2024-02-29T03:27:31.015Z,7.08
2024-02-29T03:28:32.908Z,7.10
2024-02-29T03:29:34.668Z,7.14
2024-02-29T03:30:36.282Z,7.06
2024-02-29T03:31:37.932Z,7.05
2024-02-29T03:32:39.830Z,7.08
2024-02-29T03:33:42.443Z,7.10
2024-02-29T03:34:44.214Z,7.13
2024-02-29T03:35:45.925Z,7.12
2024-02-29T03:36:47.707Z,7.14
2024-02-29T03:37:49.370Z,7.13
2024-02-29T03:38:51.216Z,7.16
2024-02-29T03:39:52.989Z,7.14
2024-02-29T03:40:54.732Z,7.12
2024-02-29T03:41:56.395Z,7.15
2024-02-29T03:42:58.050Z,7.10
2024-02-29T03:44:00.470Z,7.10
2024-02-29T03:45:02.096Z,7.04
2024-02-29T03:46:04.142Z,7.05
2024-02-29T03:47:06.186Z,7.03
2024-02-29T03:48:08.177Z,6.97
2024-02-29T03:49:10.065Z,7.00
2024-02-29T03:50:11.896Z,6.96
2024-02-29T03:51:13.628Z,6.85
2024-02-29T03:52:15.493Z,6.87
2024-02-29T03:53:17.208Z,6.92
2024-02-29T03:54:19.053Z,6.96
2024-02-29T03:55:20.964Z,7.00
2024-02-29T03:56:22.823Z,6.98
2024-02-29T03:57:24.546Z,6.82
2024-02-29T03:58:26.354Z,6.84
2024-02-29T03:59:27.971Z,6.85
2024-02-29T04:00:29.747Z,6.87
2024-02-29T04:01:31.492Z,6.94
2024-02-29T04:02:33.378Z,6.96
2024-02-29T04:03:35.245Z,6.95
2024-02-29T04:04:38.889Z,6.99
2024-02-29T04:05:40.811Z,6.98
2024-02-29T04:06:42.747Z,7.01
2024-02-29T04:07:44.412Z,6.92
2024-02-29T04:08:46.370Z,6.91
2024-02-29T04:09:48.105Z,6.94
2024-02-29T04:10:50.213Z,6.95
2024-02-29T04:11:52.058Z,6.94
2024-02-29T04:12:53.808Z,6.84
2024-02-29T04:13:55.466Z,6.85
2024-02-29T04:14:57.444Z,6.87
2024-02-29T04:15:59.169Z,6.92
2024-02-29T04:17:00.957Z,6.96
2024-02-29T04:18:03.779Z,6.93
2024-02-29T04:19:07.079Z,6.97
2024-02-29T04:20:09.248Z,6.98
2024-02-29T04:21:11.107Z,7.01
2024-02-29T04:22:14.766Z,6.99
2024-02-29T04:23:16.487Z,7.03
2024-02-29T04:24:18.097Z,6.94
2024-02-29T04:25:19.775Z,6.90
2024-02-29T04:26:21.479Z,6.91
2024-02-29T04:27:23.195Z,6.96
2024-02-29T04:28:24.925Z,7.00
2024-02-29T04:29:26.654Z,7.00
2024-02-29T04:30:28.333Z,6.99
2024-02-29T04:31:29.975Z,7.00
2024-02-29T04:32:31.827Z,6.99
2024-02-29T04:33:33.777Z,7.01
2024-02-29T04:34:35.395Z,7.01
2024-02-29T04:35:37.172Z,7.03
2024-02-29T04:36:38.865Z,7.01
2024-02-29T04:37:40.689Z,7.04
2024-02-29T04:38:42.439Z,7.00
2024-02-29T04:39:44.163Z,6.96
2024-02-29T04:40:46.080Z,6.96
2024-02-29T04:41:47.772Z,6.93
2024-02-29T04:42:49.504Z,6.98
2024-02-29T04:43:51.195Z,6.98
2024-02-29T04:44:53.052Z,7.00
2024-02-29T04:45:54.906Z,7.02
2024-02-29T04:46:56.659Z,6.86
2024-02-29T04:47:58.581Z,6.67
2024-02-29T04:49:00.584Z,6.57
2024-02-29T04:50:02.400Z,6.60
2024-02-29T04:51:04.283Z,6.66
2024-02-29T04:52:06.212Z,6.69
2024-02-29T04:53:07.897Z,6.70
2024-02-29T04:54:09.605Z,6.72
2024-02-29T04:55:11.524Z,6.75
2024-02-29T04:56:13.499Z,6.74
2024-02-29T04:57:15.267Z,6.75
2024-02-29T04:58:17.214Z,6.76
2024-02-29T04:59:18.914Z,6.77
2024-02-29T05:00:20.662Z,6.82
2024-02-29T05:01:22.458Z,6.80
2024-02-29T05:02:24.121Z,6.85
2024-02-29T05:03:25.824Z,6.86
2024-02-29T05:04:27.471Z,6.88
2024-02-29T05:05:29.070Z,6.84
2024-02-29T05:06:30.784Z,6.83
2024-02-29T05:07:32.498Z,6.86
2024-02-29T05:08:34.209Z,6.88
2024-02-29T05:09:35.906Z,6.91
2024-02-29T05:10:37.804Z,6.89
2024-02-29T05:11:40.072Z,6.88
2024-02-29T05:12:42.076Z,6.86
2024-02-29T05:13:43.963Z,6.83
2024-02-29T05:14:45.636Z,6.80
2024-02-29T05:15:47.485Z,6.81
2024-02-29T05:16:49.200Z,6.83
2024-02-29T05:17:51.209Z,6.88
2024-02-29T05:18:52.957Z,6.91
2024-02-29T05:19:54.597Z,6.96
2024-02-29T05:20:56.355Z,6.95
2024-02-29T05:21:58.122Z,6.97
2024-02-29T05:22:59.752Z,6.94
2024-02-29T05:24:01.391Z,6.93
2024-02-29T05:25:03.277Z,6.92
2024-02-29T05:26:05.604Z,6.96
2024-02-29T05:27:07.281Z,6.98
2024-02-29T05:28:09.185Z,6.97
2024-02-29T05:29:11.122Z,6.92
2024-02-29T05:30:13.159Z,6.91
2024-02-29T05:31:14.905Z,6.92
2024-02-29T05:32:18.623Z,6.94
2024-02-29T05:33:20.858Z,6.96
2024-02-29T05:34:22.608Z,6.98
2024-02-29T05:35:24.396Z,6.99
2024-02-29T05:36:26.210Z,7.01
2024-02-29T05:37:27.958Z,7.05
2024-02-29T05:38:29.683Z,7.05
2024-02-29T05:39:31.538Z,7.03
2024-02-29T05:40:33.329Z,6.99
2024-02-29T05:41:35.152Z,6.98
2024-02-29T05:42:37.079Z,7.01
2024-02-29T05:43:38.716Z,6.91
2024-02-29T05:44:40.424Z,6.95
2024-02-29T05:45:42.153Z,6.96
2024-02-29T05:46:43.909Z,6.94
2024-02-29T05:47:45.686Z,6.92
2024-02-29T05:48:47.342Z,6.95
2024-02-29T05:49:49.090Z,6.97
2024-02-29T05:50:50.836Z,6.96
2024-02-29T05:51:52.498Z,6.98
2024-02-29T05:52:54.190Z,7.02
2024-02-29T05:53:55.829Z,7.03
2024-02-29T05:54:57.571Z,7.03
2024-02-29T05:55:59.210Z,7.08
2024-02-29T05:57:03.572Z,7.07
2024-02-29T05:58:07.073Z,7.08
2024-02-29T05:59:08.866Z,7.08
2024-02-29T06:00:11.081Z,7.09
2024-02-29T06:01:13.266Z,7.09
2024-02-29T06:02:15.400Z,7.11
2024-02-29T06:03:17.052Z,7.12
2024-02-29T06:04:18.763Z,7.15
2024-02-29T06:05:20.863Z,7.06
2024-02-29T06:06:22.557Z,7.03
2024-02-29T06:07:24.302Z,7.02
2024-02-29T06:08:26.023Z,7.06
2024-02-29T06:09:27.669Z,7.07
2024-02-29T06:10:29.338Z,7.09
2024-02-29T06:11:31.091Z,7.11
2024-02-29T06:12:33.026Z,7.14
2024-02-29T06:13:34.786Z,7.13
2024-02-29T06:14:37.090Z,7.14
2024-02-29T06:15:38.762Z,7.14
2024-02-29T06:16:40.399Z,7.13
2024-02-29T06:17:42.086Z,7.14
2024-02-29T06:18:43.746Z,7.11
2024-02-29T06:19:45.660Z,7.03
2024-02-29T06:20:47.448Z,7.01
2024-02-29T06:21:49.276Z,7.00
2024-02-29T06:22:50.995Z,7.01
2024-02-29T06:23:52.813Z,6.99
2024-02-29T06:24:54.703Z,6.97
2024-02-29T06:25:56.538Z,6.89
2024-02-29T06:26:58.185Z,6.87
2024-02-29T06:27:59.881Z,6.88
2024-02-29T06:29:02.185Z,6.84
2024-02-29T06:30:04.152Z,6.83
2024-02-29T06:31:06.010Z,6.88
2024-02-29T06:32:07.753Z,6.88
2024-02-29T06:33:09.639Z,6.92
2024-02-29T06:34:11.456Z,6.92
2024-02-29T06:35:13.157Z,6.94
2024-02-29T06:36:15.040Z,6.95
2024-02-29T06:37:17.236Z,6.95
2024-02-29T06:38:18.969Z,6.99
2024-02-29T06:39:20.934Z,7.01
2024-02-29T06:40:22.939Z,7.02
2024-02-29T06:41:24.872Z,7.00
2024-02-29T06:42:26.814Z,6.92
2024-02-29T06:43:30.785Z,6.89
2024-02-29T06:44:33.367Z,6.90
2024-02-29T06:45:35.300Z,6.95
2024-02-29T06:46:37.192Z,6.98
2024-02-29T06:47:42.179Z,7.01
2024-02-29T06:48:44.106Z,7.05
2024-02-29T06:49:45.813Z,7.07
2024-02-29T06:50:47.580Z,7.06
2024-02-29T06:51:49.546Z,7.07
2024-02-29T06:52:53.612Z,7.07
2024-02-29T06:53:57.045Z,7.07
2024-02-29T06:54:58.873Z,7.09
2024-02-29T06:56:01.705Z,7.11
2024-02-29T06:57:03.459Z,7.13
2024-02-29T06:58:05.466Z,7.14
2024-02-29T06:59:07.136Z,7.15
2024-02-29T07:00:09.532Z,7.16
2024-02-29T07:01:13.535Z,7.14
2024-02-29T07:02:15.417Z,7.07
2024-02-29T07:03:17.181Z,7.01
2024-02-29T07:04:19.011Z,7.03
2024-02-29T07:05:20.996Z,6.95
2024-02-29T07:06:25.588Z,6.88
2024-02-29T07:07:27.276Z,6.87
2024-02-29T07:08:28.947Z,6.88
2024-02-29T07:09:30.832Z,6.84
2024-02-29T07:10:32.708Z,6.78
2024-02-29T07:11:34.389Z,6.77
2024-02-29T07:12:36.159Z,6.85
2024-02-29T07:13:38.113Z,6.86
2024-02-29T07:14:40.081Z,6.93
2024-02-29T07:15:41.799Z,6.97
2024-02-29T07:16:43.864Z,6.96
2024-02-29T07:17:45.612Z,6.91
2024-02-29T07:18:47.555Z,6.87
2024-02-29T07:19:49.255Z,6.91
2024-02-29T07:20:51.915Z,6.96
2024-02-29T07:21:53.573Z,7.02
2024-02-29T07:22:57.506Z,7.06
2024-02-29T07:23:59.156Z,7.10
2024-02-29T07:25:01.015Z,7.13
2024-02-29T07:26:03.044Z,7.17
2024-02-29T07:27:04.915Z,7.19
2024-02-29T07:28:09.484Z,7.23
2024-02-29T07:29:11.202Z,7.24
2024-02-29T07:30:13.156Z,7.26
2024-02-29T07:31:14.953Z,7.27
2024-02-29T07:32:16.734Z,7.29
2024-02-29T07:33:18.650Z,7.29
2024-02-29T07:34:20.396Z,7.28
2024-02-29T07:35:22.113Z,7.29
2024-02-29T07:36:23.772Z,7.24
2024-02-29T07:37:25.539Z,7.23
2024-02-29T07:38:27.225Z,7.16
2024-02-29T07:39:28.904Z,7.19
2024-02-29T07:40:31.021Z,7.16
2024-02-29T07:41:32.973Z,7.19
2024-02-29T07:42:34.812Z,7.19
2024-02-29T07:43:36.557Z,7.22
2024-02-29T07:44:38.276Z,7.25
2024-02-29T07:45:39.997Z,7.27
2024-02-29T07:46:41.736Z,7.29
2024-02-29T07:47:43.579Z,7.27
2024-02-29T07:48:45.327Z,7.21
2024-02-29T07:49:46.969Z,7.21
2024-02-29T07:50:49.349Z,7.20
2024-02-29T07:51:51.852Z,7.23
2024-02-29T07:52:53.777Z,7.24
2024-02-29T07:53:55.581Z,7.20
2024-02-29T07:54:57.480Z,7.11
2024-02-29T07:55:59.259Z,7.09
2024-02-29T07:57:01.102Z,7.08
2024-02-29T07:58:02.776Z,7.02
2024-02-29T07:59:04.515Z,7.05
2024-02-29T08:00:07.182Z,7.09
2024-02-29T08:01:12.522Z,7.12
2024-02-29T08:02:14.366Z,7.11
2024-02-29T08:03:16.142Z,7.08
2024-02-29T08:04:17.916Z,7.04
2024-02-29T08:05:19.623Z,7.00
2024-02-29T08:06:21.217Z,7.04
2024-02-29T08:07:22.842Z,7.10
2024-02-29T08:08:24.773Z,7.05
2024-02-29T08:09:26.547Z,7.03
2024-02-29T08:10:28.439Z,7.07
2024-02-29T08:11:30.152Z,7.13
2024-02-29T08:12:31.793Z,7.17
2024-02-29T08:13:33.413Z,7.24
2024-02-29T08:14:35.093Z,7.29
2024-02-29T08:15:36.737Z,7.31
2024-02-29T08:16:38.431Z,7.37
2024-02-29T08:17:40.205Z,7.35
2024-02-29T08:18:41.968Z,7.32
2024-02-29T08:19:43.946Z,7.37
2024-02-29T08:20:45.762Z,7.44
2024-02-29T08:21:47.513Z,7.48
2024-02-29T08:22:49.751Z,7.53
2024-02-29T08:23:51.431Z,7.56
2024-02-29T08:24:53.112Z,7.61
2024-02-29T08:25:54.771Z,7.64
2024-02-29T08:26:56.521Z,7.68
2024-02-29T08:27:58.205Z,7.69
2024-02-29T08:28:59.955Z,7.70
2024-02-29T08:30:01.598Z,7.71
2024-02-29T08:31:03.288Z,7.73
2024-02-29T08:32:05.159Z,7.78
2024-02-29T08:33:06.833Z,7.78
2024-02-29T08:34:08.995Z,7.80
2024-02-29T08:35:11.360Z,7.84
2024-02-29T08:36:14.222Z,7.86
2024-02-29T08:37:15.979Z,7.88
2024-02-29T08:38:17.765Z,7.87
2024-02-29T08:39:19.642Z,7.91
2024-02-29T08:40:21.423Z,7.92
2024-02-29T08:41:23.145Z,7.92
2024-02-29T08:42:24.839Z,7.84
2024-02-29T08:43:27.345Z,7.79
2024-02-29T08:44:29.125Z,7.70
2024-02-29T08:45:30.912Z,7.66
2024-02-29T08:46:32.636Z,7.66
2024-02-29T08:47:34.702Z,7.66
2024-02-29T08:48:39.742Z,7.69
2024-02-29T08:49:41.541Z,7.71
2024-02-29T08:50:43.381Z,7.72
2024-02-29T08:51:45.070Z,7.65
2024-02-29T08:52:46.999Z,7.69
2024-02-29T08:53:48.778Z,7.78
2024-02-29T08:54:50.589Z,7.82
2024-02-29T08:55:52.311Z,7.83
2024-02-29T08:56:53.882Z,7.85
2024-02-29T08:57:55.696Z,7.86
2024-02-29T08:58:57.445Z,7.88
2024-02-29T08:59:59.152Z,7.96
2024-02-29T09:01:01.016Z,7.97
2024-02-29T09:02:03.006Z,8.02
2024-02-29T09:03:05.177Z,8.04
2024-02-29T09:04:06.922Z,8.04
2024-02-29T09:05:08.992Z,8.04
2024-02-29T09:06:10.697Z,8.06
2024-02-29T09:07:12.633Z,8.08
2024-02-29T09:08:14.386Z,8.09
2024-02-29T09:09:16.128Z,8.13
2024-02-29T09:10:17.876Z,8.14
2024-02-29T09:11:19.662Z,8.14
2024-02-29T09:12:21.359Z,8.17
2024-02-29T09:13:30.381Z,8.16
2024-02-29T09:14:39.148Z,8.23
2024-02-29T09:15:41.396Z,8.22
2024-02-29T09:16:43.156Z,8.18
2024-02-29T09:17:44.894Z,8.18
2024-02-29T09:18:46.744Z,8.20
2024-02-29T09:19:48.515Z,8.20
2024-02-29T09:20:50.750Z,8.26
2024-02-29T09:21:52.671Z,8.31
2024-02-29T09:22:54.383Z,8.30
2024-02-29T09:23:56.073Z,8.32
2024-02-29T09:24:57.984Z,8.32
2024-02-29T09:25:59.673Z,8.33
2024-02-29T09:27:01.461Z,8.37
2024-02-29T09:28:03.429Z,8.37
2024-02-29T09:29:05.173Z,8.40
2024-02-29T09:30:07.331Z,8.43
2024-02-29T09:31:09.378Z,8.45
2024-02-29T09:32:11.102Z,8.45
2024-02-29T09:33:12.776Z,8.45
2024-02-29T09:34:14.560Z,8.41
2024-02-29T09:35:16.374Z,8.42
2024-02-29T09:36:18.326Z,8.37
2024-02-29T09:37:20.218Z,8.35
2024-02-29T09:38:21.976Z,8.36
2024-02-29T09:39:24.312Z,8.40
2024-02-29T09:40:27.040Z,8.33
2024-02-29T09:41:41.568Z,8.25
2024-02-29T09:42:50.930Z,8.28
2024-02-29T09:43:54.710Z,8.28
2024-02-29T09:44:58.122Z,8.27
2024-02-29T09:46:00.377Z,8.24
2024-02-29T09:47:02.518Z,8.17
2024-02-29T09:48:05.492Z,8.15
2024-02-29T09:49:10.161Z,8.22
2024-02-29T09:50:11.997Z,8.30
2024-02-29T09:51:16.533Z,8.37
2024-02-29T09:52:18.796Z,8.40
2024-02-29T09:53:20.603Z,8.43
2024-02-29T09:54:23.105Z,8.44
2024-02-29T09:55:25.583Z,8.49
2024-02-29T09:56:29.466Z,8.47
2024-02-29T09:57:33.419Z,8.49
2024-02-29T09:58:37.566Z,8.40
2024-02-29T09:59:43.026Z,8.40
2024-02-29T10:00:44.984Z,8.39
2024-02-29T10:01:52.414Z,8.44
2024-02-29T10:02:55.973Z,8.49
2024-02-29T10:03:58.922Z,8.54
2024-02-29T10:05:01.522Z,8.59
2024-02-29T10:06:04.305Z,8.62
2024-02-29T10:07:08.003Z,8.64
2024-02-29T10:08:09.677Z,8.66
2024-02-29T10:09:11.423Z,8.63
2024-02-29T10:10:14.481Z,8.65
2024-02-29T10:11:16.360Z,8.64
2024-02-29T10:12:18.497Z,8.63
2024-02-29T10:13:20.332Z,8.61
2024-02-29T10:14:23.638Z,8.65
2024-02-29T10:15:28.866Z,8.65
2024-02-29T10:16:31.872Z,8.64
2024-02-29T10:17:34.251Z,8.64
2024-02-29T10:18:37.088Z,8.60
2024-02-29T10:19:38.947Z,8.56
2024-02-29T10:20:41.043Z,8.49
2024-02-29T10:21:42.714Z,8.49
2024-02-29T10:22:45.728Z,8.55
2024-02-29T10:23:48.790Z,8.60
2024-02-29T10:24:51.807Z,8.60
2024-02-29T10:25:53.827Z,8.62
2024-02-29T10:27:03.143Z,8.61
2024-02-29T10:28:07.603Z,8.62
2024-02-29T10:29:12.792Z,8.67
2024-02-29T10:30:16.404Z,8.71
2024-02-29T10:31:18.280Z,8.75
2024-02-29T10:32:20.162Z,8.77
2024-02-29T10:33:25.905Z,8.81
2024-02-29T10:34:27.682Z,8.79
2024-02-29T10:35:29.379Z,8.76
2024-02-29T10:36:33.069Z,8.79
2024-02-29T10:37:35.038Z,8.81
2024-02-29T10:38:36.784Z,8.84
2024-02-29T10:39:38.530Z,8.84
2024-02-29T10:40:40.196Z,8.84
2024-02-29T10:41:49.594Z,8.84
2024-02-29T10:42:53.809Z,8.79
2024-02-29T10:43:58.244Z,8.79
2024-02-29T10:45:01.263Z,8.76
2024-02-29T10:46:06.321Z,8.73
2024-02-29T10:47:10.353Z,8.73
2024-02-29T10:48:18.690Z,8.70
2024-02-29T10:49:30.597Z,8.72
2024-02-29T10:50:56.555Z,8.67
2024-02-29T10:52:10.207Z,8.68
2024-02-29T10:53:28.860Z,8.66
2024-02-29T10:54:37.120Z,8.63
2024-02-29T10:55:49.311Z,8.70
2024-02-29T10:56:54.507Z,8.70
2024-02-29T10:58:19.412Z,8.75
2024-02-29T10:59:21.456Z,8.75
2024-02-29T11:00:23.432Z,8.74
2024-02-29T11:01:26.566Z,8.76
2024-02-29T11:02:29.758Z,8.71
2024-02-29T11:03:32.442Z,8.69
2024-02-29T11:04:34.676Z,8.69
2024-02-29T11:05:37.253Z,8.74
2024-02-29T11:06:43.232Z,8.73
2024-02-29T11:07:45.815Z,8.70
2024-02-29T11:08:49.084Z,8.63
2024-02-29T11:09:51.837Z,8.65
2024-02-29T11:10:56.775Z,8.68
2024-02-29T11:12:07.962Z,8.69
2024-02-29T11:13:10.121Z,8.67
2024-02-29T11:14:13.642Z,8.74
2024-02-29T11:15:15.474Z,8.74
2024-02-29T11:16:20.041Z,8.79
2024-02-29T11:17:21.927Z,8.87
2024-02-29T11:18:25.190Z,8.93
2024-02-29T11:19:27.027Z,8.94
2024-02-29T11:20:30.683Z,8.93
2024-02-29T11:21:33.089Z,8.89
2024-02-29T11:22:36.155Z,8.83
2024-02-29T11:26:13.715Z,8.79
2024-02-29T11:27:16.854Z,8.66
2024-02-29T11:28:19.175Z,8.66
2024-02-29T11:29:22.772Z,8.72
2024-02-29T11:30:25.689Z,8.79
2024-02-29T11:31:28.793Z,8.84
2024-02-29T11:32:30.836Z,8.87
2024-02-29T11:33:35.071Z,8.93
2024-02-29T11:34:40.194Z,8.88
2024-02-29T11:35:44.062Z,8.81
2024-02-29T11:36:46.843Z,8.85
2024-02-29T11:37:48.864Z,8.92
2024-02-29T11:38:54.613Z,8.92
2024-02-29T11:40:06.726Z,9.02
2024-02-29T11:41:18.719Z,9.07
2024-02-29T11:42:23.431Z,9.06
2024-02-29T11:43:26.298Z,9.03
2024-02-29T11:44:29.451Z,8.95
2024-02-29T11:45:31.221Z,8.88
2024-02-29T11:46:33.129Z,8.92
2024-02-29T11:47:35.870Z,8.89
2024-02-29T11:48:41.454Z,8.89
2024-02-29T11:49:43.216Z,8.85
2024-02-29T11:50:44.968Z,8.90
2024-02-29T11:51:48.670Z,8.96
2024-02-29T11:52:50.687Z,8.98
2024-02-29T11:53:53.667Z,8.99
2024-02-29T11:54:59.879Z,9.03
2024-02-29T11:56:15.198Z,9.11
2024-02-29T11:57:18.764Z,9.17
2024-02-29T11:58:25.812Z,9.21
2024-02-29T11:59:27.909Z,9.22
2024-02-29T12:00:30.974Z,9.27
2024-02-29T12:01:37.499Z,9.33
2024-02-29T12:02:42.356Z,9.36
2024-02-29T12:03:44.478Z,9.32
2024-02-29T12:04:46.717Z,9.25
2024-02-29T12:05:50.240Z,9.28
2024-02-29T12:06:52.236Z,9.28
2024-02-29T12:07:54.118Z,9.27
2024-02-29T12:08:56.281Z,9.26
2024-02-29T12:09:58.748Z,9.21
2024-02-29T12:11:05.819Z,9.20
2024-02-29T12:12:07.926Z,9.21
2024-02-29T12:13:10.050Z,9.19
2024-02-29T12:14:12.843Z,9.17
2024-02-29T12:15:14.857Z,9.20
2024-02-29T12:16:16.985Z,9.20
2024-02-29T12:17:21.241Z,9.22
2024-02-29T12:18:23.688Z,9.26
2024-02-29T12:19:25.682Z,9.16
2024-02-29T12:20:28.133Z,9.10
2024-02-29T12:21:31.174Z,9.16
2024-02-29T12:22:33.736Z,9.22
2024-02-29T12:23:35.626Z,9.25
2024-02-29T12:24:37.397Z,9.27
2024-02-29T12:25:39.320Z,9.32
2024-02-29T12:26:41.316Z,9.40
2024-02-29T12:27:44.304Z,9.48
2024-02-29T12:28:48.306Z,9.55
2024-02-29T12:29:50.486Z,9.59
2024-02-29T12:30:52.308Z,9.61
2024-02-29T12:31:54.023Z,9.62
2024-02-29T12:32:56.494Z,9.47
2024-02-29T12:34:01.377Z,9.41
2024-02-29T12:35:03.703Z,9.39
2024-02-29T12:36:07.143Z,9.42
2024-02-29T12:37:12.051Z,9.50
2024-02-29T12:38:16.983Z,9.61
2024-02-29T12:39:20.130Z,9.61
2024-02-29T12:40:22.065Z,9.59
2024-02-29T12:41:26.645Z,9.61
2024-02-29T12:42:28.613Z,9.63
2024-02-29T12:43:30.907Z,9.61
2024-02-29T12:44:32.741Z,9.55
2024-02-29T12:45:34.898Z,9.60
2024-02-29T12:46:36.606Z,9.60
2024-02-29T12:47:38.794Z,9.58
2024-02-29T12:48:40.727Z,9.55
2024-02-29T12:49:42.532Z,9.57
2024-02-29T12:50:44.270Z,9.58
2024-02-29T12:51:46.103Z,9.62
2024-02-29T12:52:50.541Z,9.58
2024-02-29T12:53:52.324Z,9.56
2024-02-29T12:54:54.095Z,9.55
2024-02-29T12:55:56.304Z,9.60
2024-02-29T12:56:58.471Z,9.61
2024-02-29T12:58:00.320Z,9.63
2024-02-29T12:59:02.262Z,9.64
2024-02-29T13:00:05.084Z,9.56
2024-02-29T13:01:07.670Z,9.58
2024-02-29T13:02:09.746Z,9.63
2024-02-29T13:03:11.843Z,9.59
2024-02-29T13:04:13.614Z,9.62
2024-02-29T13:05:15.556Z,9.58
2024-02-29T13:06:17.675Z,9.62
2024-02-29T13:07:19.584Z,9.70
2024-02-29T13:08:22.507Z,9.76
2024-02-29T13:09:24.294Z,9.75
2024-02-29T13:10:26.455Z,9.77
2024-02-29T13:11:28.359Z,9.74
2024-02-29T13:12:30.079Z,9.66
2024-02-29T13:13:31.828Z,9.68
2024-02-29T13:14:33.741Z,9.75
2024-02-29T13:15:35.498Z,9.83
2024-02-29T13:16:37.323Z,9.89
2024-02-29T13:17:39.192Z,9.79
2024-02-29T13:18:41.105Z,9.76
2024-02-29T13:19:42.889Z,9.76
2024-02-29T13:20:44.548Z,9.71
2024-02-29T13:21:46.315Z,9.69
2024-02-29T13:22:48.182Z,9.72
2024-02-29T13:23:50.026Z,9.65
2024-02-29T13:24:51.871Z,9.68
2024-02-29T13:25:53.936Z,9.72
2024-02-29T13:26:57.074Z,9.69
2024-02-29T13:27:59.999Z,9.78
2024-02-29T13:29:01.619Z,9.73
2024-02-29T13:30:03.401Z,9.72
2024-02-29T13:31:05.472Z,9.80
2024-02-29T13:32:07.226Z,9.78
2024-02-29T13:33:09.181Z,9.81
2024-02-29T13:34:11.121Z,9.80
2024-02-29T13:35:12.880Z,9.78
2024-02-29T13:36:14.675Z,9.77
2024-02-29T13:37:19.520Z,9.79
2024-02-29T13:38:22.387Z,9.79
2024-02-29T13:39:24.061Z,9.79
2024-02-29T13:40:25.927Z,9.73
2024-02-29T13:41:27.663Z,9.70
2024-02-29T13:42:29.342Z,9.69
2024-02-29T13:43:31.189Z,9.66
2024-02-29T13:44:33.518Z,9.70
2024-02-29T13:45:38.346Z,9.67
2024-02-29T13:46:40.224Z,9.68
2024-02-29T13:47:50.732Z,9.67
2024-02-29T13:48:52.595Z,9.66
2024-02-29T13:49:54.344Z,9.65
2024-02-29T13:50:56.055Z,9.67
2024-02-29T13:51:57.899Z,9.76
2024-02-29T13:52:59.617Z,9.84